Time;durP1;ratioP1;P1;durP2;ratioP2;P2;SDS_P1;SDS_P2;PMS_P1;PMS_P2;Temp;Humidity;BMP_temperature;BMP_pressure;BME280_temperature;BME280_humidity;BME280_pressure;Samples;Min_cycle;Max_cycle;Signal;HPM_P1;HPM_P2
2024/01/15 00:02:07;;;;;;;7.18;2.00;;;2.00;99.90;;;;;;5040741;28;20048;-55
2024/01/15 00:04:40;;;;;;;6.57;2.05;;;1.90;99.90;;;;;;5044207;28;20044;-56
2024/01/15 00:07:06;;;;;;;7.05;1.17;;;1.90;99.90;;;;;;5044414;28;20517;-50
2024/01/15 00:09:32;;;;;;;8.95;1.45;;;1.90;99.90;;;;;;5049630;28;20040;-51
2024/01/15 00:11:59;;;;;;;1.75;0.55;;;1.90;99.90;;;;;;5046275;28;20518;-57
2024/01/15 00:14:25;;;;;;;9.65;1.90;;;1.90;99.90;;;;;;5049529;28;20044;-52
2024/01/15 00:16:51;;;;;;;5.15;0.75;;;1.90;99.90;;;;;;5046045;28;20053;-51
2024/01/15 00:19:21;;;;;;;2.13;0.40;;;1.90;99.90;;;;;;5042285;28;20119;-55
2024/01/15 00:21:47;;;;;;;1.80;0.80;;;1.90;99.90;;;;;;5045764;28;20048;-58
2024/01/15 00:24:13;;;;;;;7.60;0.82;;;1.90;99.90;;;;;;5041675;28;20075;-46
2024/01/15 00:26:39;;;;;;;10.70;1.48;;;1.80;99.90;;;;;;5024528;28;20060;-52
2024/01/15 00:29:07;;;;;;;3.50;0.40;;;1.80;99.90;;;;;;5050266;28;20558;-48
2024/01/15 00:31:33;;;;;;;4.78;0.40;;;1.90;99.90;;;;;;5049479;28;20099;-54
2024/01/15 00:33:59;;;;;;;0.40;0.15;;;1.90;99.90;;;;;;5033480;28;20049;-58
2024/01/15 00:36:25;;;;;;;8.15;1.20;;;2.00;99.90;;;;;;5041261;28;20037;-54
2024/01/15 00:38:51;;;;;;;7.95;1.50;;;2.00;99.90;;;;;;5043461;28;20087;-57
2024/01/15 00:41:18;;;;;;;10.82;1.52;;;2.00;99.90;;;;;;5032144;28;20096;-57
2024/01/15 00:43:45;;;;;;;5.47;1.38;;;2.00;99.90;;;;;;5043091;28;20615;-47
2024/01/15 00:46:10;;;;;;;8.27;1.25;;;2.00;99.90;;;;;;5040319;28;20549;-54
2024/01/15 00:48:37;;;;;;;9.77;1.02;;;1.90;99.90;;;;;;5047886;28;20072;-50
2024/01/15 00:51:04;;;;;;;9.02;1.33;;;1.90;99.90;;;;;;5046587;28;20044;-59
2024/01/15 00:53:29;;;;;;;8.88;1.30;;;1.90;99.90;;;;;;5042395;28;20166;-59
2024/01/15 00:55:55;;;;;;;20.42;1.73;;;1.90;99.90;;;;;;5041065;28;20557;-53
2024/01/15 00:58:21;;;;;;;9.43;1.70;;;1.90;99.90;;;;;;5023714;28;20049;-59
2024/01/15 01:00:47;;;;;;;21.67;2.03;;;1.90;99.90;;;;;;5052502;28;20558;-48
2024/01/15 01:03:13;;;;;;;3.03;0.47;;;1.90;99.90;;;;;;5044803;28;20040;-53
2024/01/15 01:05:38;;;;;;;3.83;0.90;;;1.90;99.90;;;;;;5055609;28;20091;-50
2024/01/15 01:08:04;;;;;;;10.13;1.75;;;2.00;99.90;;;;;;5047056;28;20036;-56
2024/01/15 01:10:30;;;;;;;16.60;2.10;;;2.00;99.90;;;;;;5041675;28;20147;-52
2024/01/15 01:12:56;;;;;;;15.95;2.75;;;2.10;99.90;;;;;;5055560;28;20040;-58
2024/01/15 01:15:22;;;;;;;19.35;2.03;;;2.10;99.90;;;;;;5041560;28;20080;-57
2024/01/15 01:17:48;;;;;;;11.95;2.40;;;2.30;99.90;;;;;;5045784;28;20165;-59
2024/01/15 01:20:15;;;;;;;33.42;8.45;;;2.30;99.90;;;;;;5047131;28;20051;-47
2024/01/15 01:22:42;;;;;;;28.88;8.45;;;2.30;99.90;;;;;;5027605;28;20505;-55
2024/01/15 01:25:09;;;;;;;31.05;6.88;;;2.30;99.90;;;;;;5033549;28;20197;-44
2024/01/15 01:27:35;;;;;;;18.38;3.70;;;2.30;99.90;;;;;;5047054;28;20053;-60
2024/01/15 01:30:01;;;;;;;18.35;5.32;;;2.40;99.90;;;;;;5043560;28;20025;-49
2024/01/15 01:32:26;;;;;;;4.03;1.23;;;2.40;99.90;;;;;;5049021;28;20056;-57
2024/01/15 01:34:52;;;;;;;19.00;1.70;;;2.40;99.90;;;;;;5028226;28;20053;-50
2024/01/15 01:37:18;;;;;;;5.70;1.08;;;2.40;99.90;;;;;;5045052;28;20132;-60
2024/01/15 01:39:44;;;;;;;19.17;2.80;;;2.50;99.90;;;;;;5047284;28;20045;-60
2024/01/15 01:42:10;;;;;;;22.58;3.30;;;2.50;99.90;;;;;;5042450;28;20041;-54
2024/01/15 01:44:36;;;;;;;5.47;1.60;;;2.50;99.90;;;;;;5048011;28;20041;-57
2024/01/15 01:47:03;;;;;;;3.58;0.80;;;2.50;99.90;;;;;;5042059;28;20544;-59
2024/01/15 01:49:29;;;;;;;16.92;1.83;;;2.50;99.90;;;;;;5047358;28;20083;-54
2024/01/15 01:52:01;;;;;;;21.63;3.00;;;2.50;99.90;;;;;;5036850;28;20044;-58
2024/01/15 01:54:29;;;;;;;12.82;1.90;;;2.50;99.90;;;;;;5047380;28;20049;-58
2024/01/15 01:56:56;;;;;;;16.95;2.30;;;2.40;99.90;;;;;;5030961;28;20152;-52
2024/01/15 01:59:23;;;;;;;21.65;2.83;;;2.50;99.90;;;;;;5050351;28;20087;-53
2024/01/15 02:01:50;;;;;;;16.50;2.35;;;2.40;99.90;;;;;;5042342;28;20868;-57
2024/01/15 02:04:16;;;;;;;7.35;1.45;;;2.50;99.90;;;;;;5045923;28;20170;-54
2024/01/15 02:06:41;;;;;;;7.63;0.68;;;2.50;99.90;;;;;;5046389;28;20534;-53
2024/01/15 02:09:08;;;;;;;12.32;1.23;;;2.50;99.90;;;;;;5045856;28;20048;-56
2024/01/15 02:11:35;;;;;;;17.05;3.42;;;2.40;99.90;;;;;;5045009;28;20049;-54
2024/01/15 02:14:01;;;;;;;17.20;2.50;;;2.40;99.90;;;;;;5054302;28;20045;-57
2024/01/15 02:16:27;;;;;;;3.35;0.68;;;2.60;99.90;;;;;;5047504;28;20147;-55
2024/01/15 02:18:53;;;;;;;8.02;1.50;;;2.60;99.90;;;;;;5055917;28;20128;-53
2024/01/15 02:21:18;;;;;;;19.60;3.42;;;2.60;99.90;;;;;;5045324;28;20049;-46
2024/01/15 02:23:44;;;;;;;29.42;3.53;;;2.60;99.90;;;;;;5045487;28;20067;-60
2024/01/15 02:26:10;;;;;;;20.60;3.33;;;2.60;99.90;;;;;;5046861;28;20463;-56
2024/01/15 02:28:36;;;;;;;33.42;6.30;;;2.80;99.90;;;;;;5048236;28;20395;-56
2024/01/15 02:31:02;;;;;;;40.38;9.02;;;2.80;99.90;;;;;;5061336;28;20040;-54
2024/01/15 02:33:28;;;;;;;36.92;8.70;;;2.90;99.90;;;;;;5048414;28;20548;-50
2024/01/15 02:35:54;;;;;;;31.05;9.93;;;2.90;99.90;;;;;;5056053;28;20041;-58
2024/01/15 02:38:19;;;;;;;43.70;10.68;;;2.90;99.90;;;;;;5047232;28;20049;-56
2024/01/15 02:40:45;;;;;;;44.42;9.20;;;3.00;99.90;;;;;;5030216;28;20056;-49
2024/01/15 02:43:12;;;;;;;36.55;5.75;;;3.00;99.90;;;;;;5057169;28;20041;-58
2024/01/15 02:45:37;;;;;;;29.67;3.88;;;3.00;99.90;;;;;;5037926;28;20372;-56
2024/01/15 02:48:03;;;;;;;24.88;3.50;;;3.00;99.90;;;;;;5027133;28;20067;-55
2024/01/15 02:50:29;;;;;;;35.92;4.72;;;3.00;99.90;;;;;;5041499;28;20550;-53
2024/01/15 02:52:55;;;;;;;36.22;3.95;;;3.00;99.90;;;;;;5027393;28;20503;-57
2024/01/15 02:55:20;;;;;;;33.05;5.85;;;3.00;99.90;;;;;;5051727;28;20051;-58
2024/01/15 02:57:46;;;;;;;30.23;6.85;;;2.90;99.90;;;;;;5026818;28;20045;-51
2024/01/15 03:00:12;;;;;;;38.95;7.35;;;3.00;99.90;;;;;;5037392;28;20053;-58
2024/01/15 03:02:40;;;;;;;31.73;4.97;;;3.10;99.90;;;;;;5047546;28;20143;-51
2024/01/15 03:05:07;;;;;;;40.80;8.23;;;3.10;99.90;;;;;;5049909;28;20124;-56
2024/01/15 03:07:33;;;;;;;45.80;7.65;;;3.10;99.90;;;;;;5025660;28;20049;-57
2024/01/15 03:10:00;;;;;;;31.95;7.13;;;3.20;99.90;;;;;;5021730;28;20499;-56
2024/01/15 03:12:26;;;;;;;42.33;8.48;;;3.10;99.90;;;;;;5052892;28;20121;-55
2024/01/15 03:14:51;;;;;;;45.47;10.70;;;3.20;99.90;;;;;;5050917;28;20136;-61
2024/01/15 03:17:17;;;;;;;26.80;3.60;;;3.10;99.90;;;;;;5043609;28;20049;-54
2024/01/15 03:19:43;;;;;;;25.30;6.72;;;3.20;99.90;;;;;;5033520;28;20037;-53
2024/01/15 03:22:09;;;;;;;15.73;4.30;;;3.20;99.90;;;;;;5052186;28;20055;-57
2024/01/15 03:24:35;;;;;;;14.32;3.22;;;3.20;99.90;;;;;;5050068;28;20585;-48
2024/01/15 03:27:01;;;;;;;15.93;2.85;;;3.20;99.90;;;;;;5047115;28;20055;-61
2024/01/15 03:29:27;;;;;;;23.00;5.03;;;3.20;99.90;;;;;;5051311;28;20142;-55
2024/01/15 03:31:53;;;;;;;23.45;6.00;;;3.10;99.90;;;;;;5059529;28;20473;-49
2024/01/15 03:34:19;;;;;;;24.50;6.53;;;3.10;99.90;;;;;;5035354;28;20049;-53
2024/01/15 03:36:45;;;;;;;31.42;7.88;;;3.10;99.90;;;;;;5011128;28;20045;-57
2024/01/15 03:39:10;;;;;;;36.97;6.05;;;3.20;99.90;;;;;;5035995;28;20129;-58
2024/01/15 03:41:36;;;;;;;40.97;7.43;;;3.20;99.90;;;;;;5048942;28;20072;-47
2024/01/15 03:44:02;;;;;;;40.10;8.77;;;3.20;99.90;;;;;;5062137;28;20119;-47
2024/01/15 03:46:28;;;;;;;34.75;6.63;;;3.10;99.90;;;;;;5025811;28;20412;-57
2024/01/15 03:48:54;;;;;;;34.08;5.97;;;3.10;99.90;;;;;;5062263;28;20062;-49
2024/01/15 03:51:21;;;;;;;35.95;8.18;;;3.00;99.90;;;;;;5029309;28;20045;-55
2024/01/15 03:53:47;;;;;;;30.27;7.00;;;3.10;99.90;;;;;;5048759;28;20049;-56
2024/01/15 03:56:13;;;;;;;34.80;8.48;;;3.20;99.90;;;;;;5037037;28;20048;-58
2024/01/15 03:58:38;;;;;;;21.20;4.32;;;3.30;99.90;;;;;;5046563;28;20041;-58
2024/01/15 04:01:08;;;;;;;31.00;6.70;;;3.30;99.90;;;;;;5051680;28;20059;-47
2024/01/15 04:03:34;;;;;;;34.03;9.52;;;3.30;99.90;;;;;;5041996;28;20037;-54
2024/01/15 04:06:00;;;;;;;30.80;4.75;;;3.30;99.90;;;;;;5053769;28;20056;-49
2024/01/15 04:08:25;;;;;;;22.77;4.70;;;3.20;99.90;;;;;;5025654;28;20136;-55
2024/01/15 04:10:51;;;;;;;30.92;7.80;;;3.10;99.90;;;;;;5053815;28;20041;-54
2024/01/15 04:13:17;;;;;;;16.80;5.22;;;3.10;99.90;;;;;;5049367;28;20045;-54
2024/01/15 04:15:42;;;;;;;24.42;5.93;;;3.10;99.90;;;;;;5041995;28;20062;-57
2024/01/15 04:18:08;;;;;;;30.38;6.95;;;3.10;99.90;;;;;;5028975;28;20398;-51
2024/01/15 04:20:34;;;;;;;25.45;7.18;;;3.00;99.90;;;;;;5024657;28;20063;-53
2024/01/15 04:23:00;;;;;;;12.20;2.63;;;3.00;99.90;;;;;;5020817;28;20048;-53
2024/01/15 04:25:25;;;;;;;18.27;4.63;;;3.00;99.90;;;;;;5042344;28;20049;-62
2024/01/15 04:27:51;;;;;;;16.92;3.33;;;3.00;99.90;;;;;;5048134;28;20037;-51
2024/01/15 04:30:17;;;;;;;16.88;4.15;;;2.90;99.90;;;;;;5047078;28;20464;-59
2024/01/15 04:32:42;;;;;;;18.45;3.30;;;3.00;99.90;;;;;;5043903;28;20041;-53
2024/01/15 04:35:08;;;;;;;20.42;3.40;;;3.00;99.90;;;;;;5046719;28;20041;-53
2024/01/15 04:37:34;;;;;;;23.55;6.10;;;3.00;99.90;;;;;;5034629;28;20132;-57
2024/01/15 04:40:00;;;;;;;22.45;4.32;;;3.00;99.90;;;;;;5029441;28;20044;-54
2024/01/15 04:42:26;;;;;;;21.05;3.30;;;3.10;99.90;;;;;;5041675;28;20147;-60
2024/01/15 04:44:51;;;;;;;25.25;5.03;;;3.10;99.90;;;;;;5047697;28;20033;-59
2024/01/15 04:47:17;;;;;;;28.70;4.88;;;3.10;99.90;;;;;;5026684;28;20139;-53
2024/01/15 04:49:43;;;;;;;14.63;2.45;;;3.10;99.90;;;;;;5050888;28;20040;-55
2024/01/15 04:52:10;;;;;;;12.70;2.72;;;3.10;99.90;;;;;;5024218;28;20091;-54
2024/01/15 04:54:36;;;;;;;18.48;2.50;;;3.00;99.90;;;;;;5052051;28;20051;-49
2024/01/15 04:57:02;;;;;;;12.95;3.17;;;3.00;99.90;;;;;;5050608;28;20033;-45
2024/01/15 04:59:28;;;;;;;32.15;8.13;;;2.90;99.90;;;;;;5048700;28;20047;-52
2024/01/15 05:01:54;;;;;;;13.82;2.55;;;2.80;99.90;;;;;;5044391;28;20040;-59
2024/01/15 05:04:20;;;;;;;15.95;2.05;;;2.60;99.90;;;;;;5044206;28;20514;-56
2024/01/15 05:06:46;;;;;;;15.27;2.45;;;2.50;99.90;;;;;;5047540;28;20049;-54
2024/01/15 05:09:13;;;;;;;13.43;2.05;;;2.40;99.90;;;;;;5017360;28;20045;-55
2024/01/15 05:11:39;;;;;;;9.48;1.15;;;2.40;99.90;;;;;;5042867;28;20443;-56
2024/01/15 05:14:05;;;;;;;4.63;1.33;;;2.40;99.90;;;;;;5046180;28;20052;-59
2024/01/15 05:16:31;;;;;;;10.93;2.38;;;2.40;99.90;;;;;;5039909;28;20513;-55
2024/01/15 05:18:56;;;;;;;13.35;3.60;;;2.40;99.90;;;;;;5029926;28;20673;-57
2024/01/15 05:21:22;;;;;;;16.70;4.85;;;2.40;99.90;;;;;;5042010;28;20550;-53
2024/01/15 05:23:48;;;;;;;18.50;4.60;;;2.50;99.90;;;;;;5046075;28;20419;-55
2024/01/15 05:26:14;;;;;;;18.13;5.50;;;2.50;99.90;;;;;;5041494;28;20048;-60
2024/01/15 05:28:42;;;;;;;18.38;5.30;;;2.40;99.90;;;;;;5035462;28;20081;-58
2024/01/15 05:31:09;;;;;;;20.40;6.90;;;2.40;99.90;;;;;;5045145;28;20048;-53
2024/01/15 05:33:34;;;;;;;19.17;6.07;;;2.40;99.90;;;;;;5044725;28;20098;-58
2024/01/15 05:36:00;;;;;;;16.17;3.10;;;2.40;99.90;;;;;;5042692;28;20386;-58
2024/01/15 05:38:26;;;;;;;10.23;5.28;;;2.40;99.90;;;;;;5039613;28;20060;-54
2024/01/15 05:40:51;;;;;;;18.85;7.43;;;2.30;99.90;;;;;;5050463;28;20050;-50
2024/01/15 05:43:17;;;;;;;22.60;9.20;;;2.40;99.90;;;;;;5048459;28;20116;-52
2024/01/15 05:45:44;;;;;;;18.50;7.93;;;2.40;99.90;;;;;;5024468;28;20060;-48
2024/01/15 05:48:10;;;;;;;14.40;6.63;;;2.40;99.90;;;;;;5043949;28;20052;-48
2024/01/15 05:50:36;;;;;;;15.88;5.32;;;2.30;99.90;;;;;;5043241;28;20178;-59
2024/01/15 05:53:02;;;;;;;15.20;4.63;;;2.30;99.90;;;;;;5039130;28;20116;-57
2024/01/15 05:55:28;;;;;;;27.90;5.43;;;2.30;99.90;;;;;;5041689;28;20049;-57
2024/01/15 05:57:54;;;;;;;17.52;4.85;;;2.30;99.90;;;;;;5042508;28;20110;-45
2024/01/15 06:00:19;;;;;;;11.50;1.90;;;2.20;99.90;;;;;;5043288;28;20056;-57
2024/01/15 06:02:45;;;;;;;17.08;3.10;;;2.20;99.90;;;;;;5024810;28;20510;-57
2024/01/15 06:05:11;;;;;;;21.48;3.38;;;2.20;99.90;;;;;;5041905;28;20067;-58
2024/01/15 06:07:36;;;;;;;19.02;3.35;;;2.20;99.90;;;;;;5048605;28;20238;-53
2024/01/15 06:10:03;;;;;;;13.05;2.72;;;2.20;99.90;;;;;;5040175;28;20434;-50
2024/01/15 06:12:30;;;;;;;19.80;3.88;;;2.20;99.90;;;;;;5044770;28;20049;-53
2024/01/15 06:14:56;;;;;;;20.42;4.18;;;2.20;99.90;;;;;;5025844;28;20132;-48
2024/01/15 06:17:22;;;;;;;24.77;3.63;;;2.20;99.90;;;;;;5042655;28;20136;-56
2024/01/15 06:19:47;;;;;;;22.50;3.58;;;2.20;99.90;;;;;;5045702;28;20041;-53
2024/01/15 06:22:13;;;;;;;23.63;4.20;;;2.30;99.90;;;;;;5047831;28;20044;-55
2024/01/15 06:24:39;;;;;;;11.15;3.05;;;2.30;99.90;;;;;;5041417;28;20065;-58
2024/01/15 06:27:05;;;;;;;8.45;1.67;;;2.30;99.90;;;;;;5031963;28;20049;-57
2024/01/15 06:29:31;;;;;;;19.83;1.58;;;2.30;99.90;;;;;;5044196;28;20105;-58
2024/01/15 06:31:57;;;;;;;13.27;0.82;;;2.30;99.90;;;;;;5042442;28;20087;-54
2024/01/15 06:34:23;;;;;;;8.20;1.08;;;2.30;99.90;;;;;;5044086;28;20068;-56
2024/01/15 06:36:48;;;;;;;7.82;0.80;;;2.20;99.90;;;;;;5029232;28;20041;-49
2024/01/15 06:39:14;;;;;;;22.27;2.75;;;2.20;99.90;;;;;;5051453;28;20036;-55
2024/01/15 06:41:43;;;;;;;16.55;3.20;;;2.20;99.90;;;;;;5052874;28;20083;-60
2024/01/15 06:44:13;;;;;;;15.13;3.30;;;2.20;99.90;;;;;;5050410;28;20436;-56
2024/01/15 06:46:43;;;;;;;13.15;3.10;;;2.30;99.90;;;;;;5029292;28;20045;-59
2024/01/15 06:49:09;;;;;;;5.28;1.02;;;2.30;99.90;;;;;;5052352;28;20129;-49
2024/01/15 06:51:35;;;;;;;11.10;2.40;;;2.20;99.90;;;;;;5053886;28;20048;-55
2024/01/15 06:54:01;;;;;;;13.65;2.05;;;2.10;99.90;;;;;;5044831;28;20540;-51
2024/01/15 06:56:27;;;;;;;8.50;2.53;;;2.10;99.90;;;;;;5045873;28;20444;-54
2024/01/15 06:58:53;;;;;;;8.63;3.17;;;2.00;99.90;;;;;;5054519;28;20399;-57
2024/01/15 07:01:20;;;;;;;13.93;3.33;;;2.00;99.90;;;;;;5008505;28;20084;-52
2024/01/15 07:03:46;;;;;;;14.75;2.15;;;1.90;99.90;;;;;;5046487;28;20067;-53
2024/01/15 07:06:12;;;;;;;3.03;0.88;;;1.80;99.90;;;;;;5043881;28;20040;-58
2024/01/15 07:08:39;;;;;;;1.73;0.88;;;1.80;99.90;;;;;;5046987;28;20045;-52
2024/01/15 07:11:05;;;;;;;0.47;0.32;;;1.70;99.90;;;;;;5043377;28;20604;-54
2024/01/15 07:13:31;;;;;;;0.08;0.08;;;1.70;99.90;;;;;;5036261;28;20820;-50
2024/01/15 07:15:59;;;;;;;0.10;0.10;;;1.60;99.90;;;;;;5048628;28;20084;-53
2024/01/15 07:18:25;;;;;;;1.65;0.20;;;1.70;99.90;;;;;;5043145;28;20045;-58
2024/01/15 07:20:51;;;;;;;3.30;1.25;;;1.70;99.90;;;;;;5010331;28;20098;-50
2024/01/15 07:23:19;;;;;;;0.85;0.30;;;1.70;99.90;;;;;;5039078;28;20052;-51
2024/01/15 07:25:45;;;;;;;7.07;1.63;;;1.70;99.90;;;;;;5050202;28;20045;-55
2024/01/15 07:28:11;;;;;;;5.05;0.88;;;1.70;99.90;;;;;;5053375;28;20048;-49
2024/01/15 07:30:38;;;;;;;11.82;1.45;;;1.70;99.90;;;;;;5048151;28;20916;-54
2024/01/15 07:33:06;;;;;;;11.35;1.17;;;1.70;99.90;;;;;;5046360;28;20359;-53
2024/01/15 07:35:38;;;;;;;12.30;1.40;;;1.60;99.90;;;;;;5049209;28;20083;-52
2024/01/15 07:38:03;;;;;;;17.40;2.17;;;1.60;99.90;;;;;;5048078;28;20337;-55
2024/01/15 07:40:29;;;;;;;19.65;2.67;;;1.60;99.90;;;;;;5046291;28;20558;-58
2024/01/15 07:42:55;;;;;;;7.53;0.75;;;1.50;99.90;;;;;;5047568;28;20076;-59
2024/01/15 07:45:20;;;;;;;0.82;0.25;;;1.60;99.90;;;;;;5034195;28;20106;-53
2024/01/15 07:47:46;;;;;;;2.10;0.43;;;1.60;99.90;;;;;;5044140;28;20410;-57
2024/01/15 07:50:12;;;;;;;7.75;1.15;;;1.60;99.90;;;;;;5043544;28;20171;-45
2024/01/15 07:52:39;;;;;;;2.00;0.75;;;1.60;99.90;;;;;;5027148;28;20376;-50
2024/01/15 07:55:05;;;;;;;1.50;0.43;;;1.60;99.90;;;;;;5040927;28;20439;-59
2024/01/15 07:57:30;;;;;;;13.20;1.25;;;1.60;99.90;;;;;;5044673;28;20045;-55
2024/01/15 07:59:56;;;;;;;2.58;0.22;;;1.50;99.90;;;;;;5022677;28;20538;-61
2024/01/15 08:02:22;;;;;;;5.30;0.93;;;1.50;99.90;;;;;;5041531;28;20542;-59
2024/01/15 08:04:48;;;;;;;15.50;2.05;;;1.50;99.90;;;;;;5054376;28;20044;-54
2024/01/15 08:07:13;;;;;;;6.68;1.35;;;1.60;99.90;;;;;;5042120;28;20641;-56
2024/01/15 08:09:39;;;;;;;7.63;1.08;;;1.50;99.90;;;;;;5041305;28;20106;-60
2024/01/15 08:12:06;;;;;;;7.22;1.15;;;1.60;99.90;;;;;;5043895;28;20063;-51
2024/01/15 08:14:32;;;;;;;0.45;0.25;;;1.60;99.90;;;;;;5048306;28;20438;-57
2024/01/15 08:16:57;;;;;;;2.42;0.50;;;1.60;99.90;;;;;;5048906;28;20045;-56
2024/01/15 08:19:23;;;;;;;4.32;0.63;;;1.60;99.90;;;;;;5037815;28;20051;-45
2024/01/15 08:21:49;;;;;;;8.80;0.52;;;1.70;99.90;;;;;;5049645;28;20068;-54
2024/01/15 08:24:15;;;;;;;0.10;0.05;;;1.60;99.90;;;;;;5040070;28;20064;-57
2024/01/15 08:26:41;;;;;;;2.78;0.40;;;1.60;99.90;;;;;;5046124;28;20044;-51
2024/01/15 08:29:07;;;;;;;0.77;0.25;;;1.60;99.90;;;;;;5041181;28;20036;-51
2024/01/15 08:31:33;;;;;;;5.78;0.77;;;1.70;99.90;;;;;;5038221;28;20061;-54
2024/01/15 08:33:59;;;;;;;2.00;0.13;;;1.70;99.90;;;;;;5045249;28;20041;-54
2024/01/15 08:36:25;;;;;;;1.95;0.52;;;1.80;99.90;;;;;;5037930;28;20052;-56
2024/01/15 08:38:51;;;;;;;21.25;2.28;;;1.80;99.90;;;;;;5042736;28;20037;-57
2024/01/15 08:41:16;;;;;;;1.75;0.40;;;1.90;99.90;;;;;;5006251;28;20377;-54
2024/01/15 08:43:42;;;;;;;11.55;1.80;;;1.90;99.90;;;;;;5053094;28;20759;-50
2024/01/15 08:46:08;;;;;;;3.25;1.05;;;1.90;99.90;;;;;;5043335;28;20067;-53
2024/01/15 08:48:34;;;;;;;3.92;0.70;;;1.90;99.90;;;;;;5033551;28;20052;-59
2024/01/15 08:50:59;;;;;;;10.30;1.50;;;1.90;99.90;;;;;;5027426;28;20513;-57
2024/01/15 08:53:25;;;;;;;13.20;1.92;;;1.90;99.90;;;;;;5038848;28;20049;-59
2024/01/15 08:55:51;;;;;;;17.85;2.17;;;1.80;99.90;;;;;;5027521;28;20053;-51
2024/01/15 08:58:17;;;;;;;13.88;3.45;;;1.80;99.90;;;;;;5023193;28;20394;-52
2024/01/15 09:00:43;;;;;;;18.75;1.98;;;1.70;99.90;;;;;;5027005;28;20460;-56
2024/01/15 09:03:09;;;;;;;16.98;2.65;;;1.70;99.90;;;;;;5046131;28;20116;-56
2024/01/15 09:05:35;;;;;;;11.88;1.90;;;1.70;99.90;;;;;;5043912;28;20041;-54
2024/01/15 09:08:01;;;;;;;11.90;1.95;;;1.70;99.90;;;;;;5045569;28;20057;-51
2024/01/15 09:10:27;;;;;;;17.35;2.25;;;1.60;99.90;;;;;;5040876;28;20037;-47
2024/01/15 09:12:52;;;;;;;13.40;1.45;;;1.60;99.90;;;;;;5048232;28;20045;-58
2024/01/15 09:15:19;;;;;;;4.22;0.82;;;1.60;99.90;;;;;;5042115;28;20064;-52
2024/01/15 09:17:46;;;;;;;6.97;1.27;;;1.60;99.90;;;;;;5043579;28;20115;-53
2024/01/15 09:20:11;;;;;;;8.05;1.33;;;1.60;99.90;;;;;;5043378;28;20072;-50
2024/01/15 09:22:43;;;;;;;9.15;1.35;;;1.60;99.90;;;;;;5041154;28;20081;-54
2024/01/15 09:25:11;;;;;;;14.35;1.50;;;1.60;99.90;;;;;;5047494;28;20060;-44
2024/01/15 09:27:37;;;;;;;21.13;2.72;;;1.60;99.90;;;;;;5055243;28;20048;-57
2024/01/15 09:30:06;;;;;;;1.50;0.22;;;1.50;99.90;;;;;;5048595;28;20479;-57
2024/01/15 09:32:32;;;;;;;1.77;0.50;;;1.60;99.90;;;;;;5018013;28;20053;-60
2024/01/15 09:34:58;;;;;;;22.48;2.03;;;1.50;99.90;;;;;;5017618;28;20179;-54
2024/01/15 09:37:24;;;;;;;3.22;0.57;;;1.50;99.90;;;;;;5045404;28;20056;-50
2024/01/15 09:39:50;;;;;;;5.72;0.35;;;1.50;99.90;;;;;;5047856;28;20360;-48
2024/01/15 09:42:16;;;;;;;2.90;0.70;;;1.50;99.90;;;;;;5041389;28;20074;-56
2024/01/15 09:44:42;;;;;;;5.60;1.10;;;1.50;99.90;;;;;;5043922;28;20084;-58
2024/01/15 09:47:09;;;;;;;2.97;0.45;;;1.50;99.90;;;;;;5047204;28;20153;-52
2024/01/15 09:49:35;;;;;;;4.03;0.75;;;1.50;99.90;;;;;;5029679;28;20047;-47
2024/01/15 09:52:01;;;;;;;0.30;0.30;;;1.60;99.90;;;;;;5035734;28;20048;-54
2024/01/15 09:54:27;;;;;;;0.05;0.03;;;1.60;99.90;;;;;;5043222;28;20124;-60
2024/01/15 09:56:54;;;;;;;0.28;0.10;;;1.60;99.90;;;;;;5044730;28;20055;-53
2024/01/15 09:59:22;;;;;;;0.00;0.00;;;1.60;99.90;;;;;;5050542;28;20043;-56
2024/01/15 10:01:50;;;;;;;2.28;0.28;;;1.70;99.90;;;;;;5042893;28;20415;-53
2024/01/15 10:04:15;;;;;;;1.90;0.20;;;1.80;99.90;;;;;;5047566;28;20533;-55
2024/01/15 10:06:50;;;;;;;12.02;2.03;;;1.80;99.90;;;;;;5048856;28;20048;-52
2024/01/15 10:09:18;;;;;;;6.88;1.70;;;1.70;99.90;;;;;;5046568;28;20049;-51
2024/01/15 10:11:44;;;;;;;6.57;0.90;;;1.70;99.90;;;;;;5038382;28;20258;-56
2024/01/15 10:14:14;;;;;;;10.52;1.50;;;1.60;99.90;;;;;;5051862;28;20493;-55
2024/01/15 10:16:41;;;;;;;5.17;1.17;;;1.50;99.90;;;;;;5031341;28;20056;-47
2024/01/15 10:19:08;;;;;;;9.00;1.13;;;1.50;99.90;;;;;;5052634;28;20041;-54
2024/01/15 10:21:37;;;;;;;6.70;1.30;;;1.50;99.90;;;;;;5054975;28;20040;-55
2024/01/15 10:24:03;;;;;;;25.20;2.30;;;1.50;99.90;;;;;;5045203;28;20044;-58
2024/01/15 10:26:30;;;;;;;2.95;0.40;;;1.50;99.90;;;;;;5045551;28;20664;-58
2024/01/15 10:28:58;;;;;;;5.28;0.60;;;1.50;99.90;;;;;;5057797;28;20048;-55
2024/01/15 10:31:23;;;;;;;5.35;0.52;;;1.60;99.90;;;;;;5048157;28;20123;-55
2024/01/15 10:33:49;;;;;;;6.18;0.73;;;1.60;99.90;;;;;;5032595;28;20127;-57
2024/01/15 10:36:17;;;;;;;4.82;0.68;;;1.60;99.90;;;;;;5034107;28;20088;-54
2024/01/15 10:38:46;;;;;;;4.63;0.40;;;1.70;99.90;;;;;;5024190;28;20052;-49
2024/01/15 10:41:12;;;;;;;7.20;0.77;;;1.70;99.90;;;;;;5032562;28;20494;-58
2024/01/15 10:43:40;;;;;;;11.82;1.60;;;1.70;99.90;;;;;;5047263;28;20049;-53
2024/01/15 10:46:07;;;;;;;5.35;0.80;;;1.70;99.90;;;;;;5044992;28;20135;-51
2024/01/15 10:48:35;;;;;;;6.10;0.93;;;1.70;99.90;;;;;;5045280;28;20285;-54
2024/01/15 10:51:10;;;;;;;9.18;1.15;;;1.60;99.90;;;;;;5052798;28;20072;-58
2024/01/15 10:53:41;;;;;;;8.60;1.63;;;1.50;99.90;;;;;;5043873;28;20052;-48
2024/01/15 10:56:29;;;;;;;11.65;1.08;;;1.40;99.90;;;;;;5046931;28;20093;-56
2024/01/15 10:58:56;;;;;;;5.03;0.80;;;1.50;99.90;;;;;;5053218;28;20045;-57
2024/01/15 11:01:23;;;;;;;4.20;0.57;;;1.40;99.90;;;;;;5042027;28;20110;-55
2024/01/15 11:03:49;;;;;;;5.85;0.77;;;1.50;99.90;;;;;;5051761;28;20503;-57
2024/01/15 11:06:21;;;;;;;9.43;2.03;;;1.50;99.90;;;;;;5044381;28;20051;-59
2024/01/15 11:08:51;;;;;;;1.92;0.52;;;1.60;99.90;;;;;;5046090;28;20049;-55
2024/01/15 11:11:17;;;;;;;9.57;1.83;;;1.70;99.90;;;;;;5043479;28;20049;-55
2024/01/15 11:13:46;;;;;;;9.55;1.20;;;1.80;99.90;;;;;;5036488;28;20479;-49
2024/01/15 11:16:14;;;;;;;11.13;1.30;;;1.90;99.90;;;;;;5040270;28;20055;-56
2024/01/15 11:19:16;;;;;;;13.40;1.27;;;1.90;99.90;;;;;;5035022;28;20423;-58
2024/01/15 11:21:42;;;;;;;11.50;1.40;;;1.90;99.90;;;;;;5047570;28;20049;-46
2024/01/15 11:24:11;;;;;;;7.25;0.63;;;2.00;99.90;;;;;;5055610;28;20510;-57
2024/01/15 11:26:47;;;;;;;9.93;0.75;;;2.00;99.90;;;;;;5030950;28;20061;-55
2024/01/15 11:29:27;;;;;;;2.85;0.50;;;2.10;99.90;;;;;;5042404;28;20036;-59
2024/01/15 11:32:04;;;;;;;1.00;0.20;;;2.10;99.90;;;;;;5044601;28;20051;-55
2024/01/15 11:34:53;;;;;;;0.55;0.55;;;2.10;99.90;;;;;;5047080;28;20440;-51
2024/01/15 11:37:20;;;;;;;4.80;0.85;;;2.00;99.90;;;;;;5037519;28;20041;-58
2024/01/15 11:39:49;;;;;;;4.57;0.90;;;1.90;99.90;;;;;;5043585;28;20159;-48
2024/01/15 11:42:15;;;;;;;14.80;4.25;;;1.80;99.90;;;;;;5046154;28;20128;-47
2024/01/15 11:44:41;;;;;;;8.57;1.40;;;1.80;99.90;;;;;;5050425;28;20056;-49
2024/01/15 11:47:13;;;;;;;6.13;0.93;;;1.90;99.90;;;;;;5039617;28;20061;-49
2024/01/15 11:50:05;;;;;;;2.55;0.60;;;1.90;99.90;;;;;;5042923;28;20110;-51
2024/01/15 11:52:37;;;;;;;8.27;0.38;;;2.00;99.90;;;;;;5049407;28;20051;-50
2024/01/15 11:55:28;;;;;;;10.68;1.52;;;2.00;99.90;;;;;;5024142;28;20057;-49
2024/01/15 11:57:54;;;;;;;28.30;2.78;;;2.10;99.90;;;;;;5042539;28;20411;-53
2024/01/15 12:00:21;;;;;;;29.80;3.50;;;2.20;99.90;;;;;;5040924;28;20112;-54
2024/01/15 12:02:48;;;;;;;16.05;2.45;;;2.30;99.90;;;;;;5023138;28;20576;-47
2024/01/15 12:05:19;;;;;;;13.30;3.83;;;2.30;99.90;;;;;;5047699;28;20044;-54
2024/01/15 12:07:47;;;;;;;9.05;4.72;;;2.30;99.90;;;;;;5047071;28;20049;-60
2024/01/15 12:10:20;;;;;;;9.48;1.30;;;2.30;99.90;;;;;;5040672;28;20475;-58
2024/01/15 12:12:59;;;;;;;6.88;0.75;;;2.10;99.90;;;;;;5042280;28;20495;-49
2024/01/15 12:15:26;;;;;;;3.80;0.88;;;2.10;99.90;;;;;;5047751;28;20124;-57
2024/01/15 12:17:54;;;;;;;6.30;1.02;;;2.20;99.90;;;;;;5044448;28;20037;-52
2024/01/15 12:20:20;;;;;;;10.38;0.47;;;2.30;99.90;;;;;;5029282;28;20588;-54
2024/01/15 12:22:46;;;;;;;4.38;0.73;;;2.30;99.90;;;;;;5042820;28;20068;-54
2024/01/15 12:25:11;;;;;;;5.07;0.43;;;2.20;99.90;;;;;;5031815;28;20057;-53
2024/01/15 12:27:37;;;;;;;3.53;0.50;;;2.30;99.90;;;;;;5042964;28;20056;-48
2024/01/15 12:30:04;;;;;;;3.08;0.32;;;2.30;99.90;;;;;;5050745;28;20577;-48
2024/01/15 12:32:30;;;;;;;4.47;0.45;;;2.20;99.90;;;;;;5044273;28;20051;-50
2024/01/15 12:34:55;;;;;;;4.00;0.30;;;2.30;99.90;;;;;;5055262;28;20494;-45
2024/01/15 12:37:21;;;;;;;3.38;0.70;;;2.40;99.90;;;;;;5049380;28;20144;-47
2024/01/15 12:39:48;;;;;;;4.57;0.77;;;2.50;99.90;;;;;;5049052;28;20577;-52
2024/01/15 12:42:16;;;;;;;12.35;1.30;;;2.50;99.90;;;;;;5042523;28;20033;-48
2024/01/15 12:44:45;;;;;;;11.30;1.58;;;2.60;99.90;;;;;;5029510;28;20053;-53
2024/01/15 12:47:12;;;;;;;8.80;0.73;;;2.70;99.90;;;;;;5037000;28;20152;-57
2024/01/15 12:49:39;;;;;;;4.18;0.60;;;2.80;99.90;;;;;;5047191;28;20544;-61